createdAt,value
2023-05-09T00:01:07.672Z,10.44
2023-05-09T00:03:52.196Z,10.40
2023-05-09T00:06:35.477Z,10.39
2023-05-09T00:09:19.024Z,10.34
2023-05-09T00:12:02.636Z,10.31
2023-05-09T00:14:45.605Z,10.31
2023-05-09T00:17:28.876Z,10.30
2023-05-09T00:20:13.775Z,10.28
2023-05-09T00:22:56.932Z,10.27
2023-05-09T00:25:39.829Z,10.25
2023-05-09T00:28:22.752Z,10.22
2023-05-09T00:31:05.794Z,10.18
2023-05-09T00:33:48.763Z,10.11
2023-05-09T00:36:33.258Z,10.04
2023-05-09T00:39:16.313Z,10.01
2023-05-09T00:41:59.427Z,9.88
2023-05-09T00:44:42.412Z,9.79
2023-05-09T00:47:25.573Z,9.78
2023-05-09T00:50:10.507Z,9.77
2023-05-09T00:52:55.426Z,9.72
2023-05-09T00:55:38.589Z,9.66
2023-05-09T00:58:22.134Z,9.57
2023-05-09T01:01:05.089Z,9.53
2023-05-09T01:03:48.688Z,9.49
2023-05-09T01:06:39.851Z,9.38
2023-05-09T01:09:28.441Z,9.32
2023-05-09T01:12:17.775Z,9.25
2023-05-09T01:15:07.256Z,9.22
2023-05-09T01:17:56.215Z,9.22
2023-05-09T01:20:45.679Z,9.31
2023-05-09T01:23:50.052Z,9.35
2023-05-09T01:26:46.170Z,9.34
2023-05-09T01:29:46.013Z,9.30
2023-05-09T01:32:31.740Z,9.18
2023-05-09T01:35:15.928Z,9.10
2023-05-09T01:38:00.547Z,9.06
2023-05-09T01:40:46.597Z,8.93
2023-05-09T01:43:33.680Z,8.95
2023-05-09T01:46:19.275Z,8.80
2023-05-09T01:49:04.391Z,8.78
2023-05-09T01:51:49.281Z,8.76
2023-05-09T01:54:33.789Z,8.68
2023-05-09T01:57:19.308Z,8.65
2023-05-09T02:00:03.034Z,8.70
2023-05-09T02:02:58.946Z,8.78
2023-05-09T02:05:43.944Z,8.79
2023-05-09T02:08:27.751Z,8.77
2023-05-09T02:11:10.779Z,8.77
2023-05-09T02:13:53.764Z,8.77
2023-05-09T02:16:36.938Z,8.72
2023-05-09T02:19:21.143Z,8.69
2023-05-09T02:22:04.998Z,8.62
2023-05-09T02:24:48.089Z,8.58
2023-05-09T02:27:31.818Z,8.53
2023-05-09T02:30:23.303Z,8.48
2023-05-09T02:33:09.665Z,8.47
2023-05-09T02:35:55.351Z,8.45
2023-05-09T02:38:38.350Z,8.44
2023-05-09T02:41:21.829Z,8.43
2023-05-09T02:44:05.230Z,8.40
2023-05-09T02:46:48.111Z,8.36
2023-05-09T02:49:32.660Z,8.36
2023-05-09T02:52:18.400Z,8.26
2023-05-09T02:55:01.281Z,8.29
2023-05-09T02:57:44.343Z,8.29
2023-05-09T03:00:27.236Z,8.16
2023-05-09T03:03:10.402Z,8.10
2023-05-09T03:05:53.411Z,8.07
2023-05-09T03:08:37.620Z,8.02
2023-05-09T03:11:21.110Z,7.99
2023-05-09T03:14:04.707Z,7.99
2023-05-09T03:16:47.808Z,7.96
2023-05-09T03:19:39.271Z,7.96
2023-05-09T03:22:22.429Z,7.95
2023-05-09T03:25:17.918Z,7.90
2023-05-09T03:28:00.994Z,7.89
2023-05-09T03:30:43.997Z,7.86
2023-05-09T03:33:30.527Z,7.85
2023-05-09T03:36:16.417Z,7.83
2023-05-09T03:39:00.207Z,7.81
2023-05-09T03:41:44.793Z,7.78
2023-05-09T03:44:29.417Z,7.76
2023-05-09T03:47:12.299Z,7.74
2023-05-09T03:49:56.416Z,7.73
2023-05-09T03:52:40.230Z,7.73
2023-05-09T03:55:24.224Z,7.72
2023-05-09T03:58:08.536Z,7.71
2023-05-09T04:00:54.472Z,7.72
2023-05-09T04:03:39.640Z,7.74
2023-05-09T04:06:22.672Z,7.77
2023-05-09T04:09:07.086Z,7.79
2023-05-09T04:11:50.694Z,7.80
2023-05-09T04:14:35.005Z,7.75
2023-05-09T04:17:18.452Z,7.69
2023-05-09T04:20:02.130Z,7.63
2023-05-09T04:22:46.919Z,7.61
2023-05-09T04:25:31.812Z,7.61
2023-05-09T04:28:14.932Z,7.59
2023-05-09T04:30:59.323Z,7.59
2023-05-09T04:33:42.474Z,7.57
2023-05-09T04:36:25.610Z,7.60
2023-05-09T04:39:08.926Z,7.62
2023-05-09T04:41:52.870Z,7.65
2023-05-09T04:44:36.124Z,7.68
2023-05-09T04:47:21.277Z,7.71
2023-05-09T04:50:04.230Z,7.73
2023-05-09T04:52:47.145Z,7.77
2023-05-09T04:55:30.922Z,7.80
2023-05-09T04:58:13.831Z,7.88
2023-05-09T05:00:57.767Z,7.86
2023-05-09T05:03:42.086Z,7.88
2023-05-09T05:06:25.281Z,7.94
2023-05-09T05:09:09.068Z,7.96
2023-05-09T05:12:00.838Z,7.98
2023-05-09T05:14:46.671Z,8.00
2023-05-09T05:17:34.213Z,8.02
2023-05-09T05:20:21.212Z,8.06
2023-05-09T05:23:06.053Z,8.16
2023-05-09T05:25:49.091Z,8.20
2023-05-09T05:28:32.246Z,8.17
2023-05-09T05:31:15.298Z,8.18
2023-05-09T05:33:58.454Z,8.19
2023-05-09T05:36:43.301Z,8.22
2023-05-09T05:39:26.755Z,8.26
2023-05-09T05:42:10.139Z,8.30
2023-05-09T05:44:53.364Z,8.38
2023-05-09T05:47:37.202Z,8.45
2023-05-09T05:50:21.456Z,8.52
2023-05-09T05:53:06.559Z,8.62
2023-05-09T05:55:49.914Z,8.76
2023-05-09T05:58:32.934Z,8.83
2023-05-09T06:01:16.458Z,8.88
2023-05-09T06:03:59.678Z,8.93
2023-05-09T06:06:45.689Z,8.96
2023-05-09T06:09:30.137Z,9.04
2023-05-09T06:12:16.583Z,9.11
2023-05-09T06:14:59.743Z,9.16
2023-05-09T06:17:43.012Z,9.20
2023-05-09T06:20:26.196Z,9.24
2023-05-09T06:23:09.972Z,9.31
2023-05-09T06:25:54.501Z,9.35
2023-05-09T06:28:37.463Z,9.40
2023-05-09T06:31:22.026Z,9.48
2023-05-09T06:34:07.458Z,9.48
2023-05-09T06:36:50.429Z,9.56
2023-05-09T06:39:34.565Z,9.66
2023-05-09T06:42:18.877Z,9.79
2023-05-09T06:45:02.255Z,9.88
2023-05-09T06:47:45.267Z,9.87
2023-05-09T06:50:28.462Z,10.04
2023-05-09T06:53:12.038Z,10.17
2023-05-09T06:55:55.043Z,10.27
2023-05-09T06:58:39.421Z,10.38
2023-05-09T07:01:22.439Z,10.49
2023-05-09T07:04:05.808Z,10.52
2023-05-09T07:06:48.692Z,10.62
2023-05-09T07:09:31.586Z,10.75
2023-05-09T07:12:14.539Z,10.89
2023-05-09T07:14:59.483Z,11.04
2023-05-09T07:17:43.557Z,11.14
2023-05-09T07:20:27.106Z,11.25
2023-05-09T07:23:10.220Z,11.35
2023-05-09T07:25:57.619Z,11.41
2023-05-09T07:28:40.526Z,11.49
2023-05-09T07:31:25.625Z,11.61
2023-05-09T07:34:08.594Z,11.64
2023-05-09T07:36:51.429Z,11.72
2023-05-09T07:39:34.494Z,11.72
2023-05-09T07:42:18.179Z,11.91
2023-05-09T07:45:01.134Z,12.12
2023-05-09T07:47:45.519Z,12.24
2023-05-09T07:50:28.571Z,12.38
2023-05-09T07:53:11.492Z,12.47
2023-05-09T07:55:54.474Z,12.62
2023-05-09T07:58:37.318Z,12.77
2023-05-09T08:01:20.500Z,12.71
2023-05-09T08:04:06.722Z,12.85
2023-05-09T08:06:50.492Z,12.83
2023-05-09T08:09:33.388Z,12.97
2023-05-09T08:12:16.377Z,13.05
2023-05-09T08:14:59.269Z,13.12
2023-05-09T08:17:42.541Z,13.21
2023-05-09T08:20:26.886Z,13.25
2023-05-09T08:23:10.090Z,13.25
2023-05-09T08:25:54.456Z,13.32
2023-05-09T08:28:37.349Z,13.34
2023-05-09T08:31:20.355Z,13.44
2023-05-09T08:34:03.371Z,13.55
2023-05-09T08:36:48.660Z,13.74
2023-05-09T08:39:31.811Z,13.89
2023-05-09T08:42:18.815Z,13.94
2023-05-09T08:45:07.461Z,14.06
2023-05-09T08:47:51.250Z,14.01
2023-05-09T08:50:35.618Z,14.13
2023-05-09T08:53:21.616Z,14.26
2023-05-09T08:56:05.370Z,14.41
2023-05-09T08:58:49.520Z,14.55
2023-05-09T09:01:35.196Z,14.67
2023-05-09T09:04:18.547Z,14.75
2023-05-09T09:07:05.837Z,14.84
2023-05-09T09:09:50.673Z,15.04
2023-05-09T09:12:33.810Z,15.21
2023-05-09T09:15:19.532Z,15.31
2023-05-09T09:18:09.074Z,15.51
2023-05-09T09:20:57.621Z,15.73
2023-05-09T09:23:43.008Z,15.95
2023-05-09T09:26:29.362Z,16.15
2023-05-09T09:29:12.918Z,16.45
2023-05-09T09:31:56.018Z,16.70
2023-05-09T09:34:39.179Z,16.80
2023-05-09T09:37:26.348Z,17.04
2023-05-09T09:40:12.232Z,17.26
2023-05-09T09:42:56.737Z,17.51
2023-05-09T09:45:43.178Z,17.87
2023-05-09T09:48:26.829Z,18.17
2023-05-09T09:51:11.768Z,18.34
2023-05-09T09:53:54.834Z,18.48
2023-05-09T09:56:42.144Z,18.39
2023-05-09T09:59:27.592Z,18.80
2023-05-09T10:02:12.412Z,19.21
2023-05-09T10:04:55.466Z,19.31
2023-05-09T10:07:38.605Z,19.09
2023-05-09T10:10:21.738Z,19.51
2023-05-09T10:13:06.441Z,19.70
2023-05-09T10:15:53.864Z,19.67
2023-05-09T10:18:37.704Z,19.79
2023-05-09T10:21:20.988Z,19.84
2023-05-09T10:24:06.561Z,20.07
2023-05-09T10:26:51.002Z,20.39
2023-05-09T10:29:37.128Z,20.71
2023-05-09T10:32:28.606Z,20.94
2023-05-09T10:35:17.140Z,21.29
2023-05-09T10:38:02.628Z,21.37
2023-05-09T10:40:48.553Z,21.30
2023-05-09T10:43:34.708Z,21.42
2023-05-09T10:46:19.509Z,21.29
2023-05-09T10:49:04.516Z,21.66
2023-05-09T10:51:50.587Z,21.94
2023-05-09T10:54:34.580Z,22.24
2023-05-09T10:57:20.726Z,22.46
2023-05-09T11:00:04.085Z,22.70
2023-05-09T11:03:07.357Z,22.74
2023-05-09T11:05:54.401Z,22.72
2023-05-09T11:08:37.512Z,22.97
2023-05-09T11:11:25.717Z,23.07
2023-05-09T11:14:09.698Z,23.02
2023-05-09T11:16:59.583Z,23.03
2023-05-09T11:20:00.248Z,23.05
2023-05-09T11:22:47.209Z,23.12
2023-05-09T11:25:30.333Z,23.16
2023-05-09T11:28:28.171Z,23.37
2023-05-09T11:31:12.479Z,23.56
2023-05-09T11:34:04.850Z,23.92
2023-05-09T11:36:49.144Z,24.27
2023-05-09T11:39:33.505Z,24.04
2023-05-09T11:42:16.562Z,23.97
2023-05-09T11:45:00.337Z,24.02
2023-05-09T11:47:43.820Z,24.13
2023-05-09T11:50:27.113Z,23.73
2023-05-09T11:53:12.431Z,23.81
2023-05-09T11:55:56.812Z,23.82
2023-05-09T11:58:40.196Z,23.81
2023-05-09T12:01:24.062Z,24.04
2023-05-09T12:04:08.388Z,24.30
2023-05-09T12:06:51.453Z,24.50
2023-05-09T12:09:38.026Z,24.82
2023-05-09T12:12:22.705Z,24.63
2023-05-09T12:15:06.756Z,24.79
2023-05-09T12:18:02.258Z,24.91
2023-05-09T12:20:47.142Z,25.03
2023-05-09T12:23:30.038Z,24.70
2023-05-09T12:26:13.111Z,24.95
2023-05-09T12:28:57.991Z,25.07
2023-05-09T12:31:42.486Z,25.44
2023-05-09T12:34:26.043Z,25.55
2023-05-09T12:37:17.353Z,25.51
2023-05-09T12:40:04.901Z,25.55
2023-05-09T12:42:47.853Z,25.75
2023-05-09T12:45:33.715Z,25.77
2023-05-09T12:48:16.775Z,25.44
2023-05-09T12:51:03.881Z,25.70
2023-05-09T12:53:47.035Z,25.96
2023-05-09T12:56:35.694Z,25.77
2023-05-09T12:59:22.119Z,24.88
2023-05-09T13:02:06.908Z,25.03
2023-05-09T13:04:49.886Z,25.09
2023-05-09T13:07:40.135Z,25.45
2023-05-09T13:10:27.375Z,25.76
2023-05-09T13:13:16.834Z,26.08
2023-05-09T13:16:00.614Z,26.19
2023-05-09T13:18:44.837Z,26.29
2023-05-09T13:21:28.685Z,26.36
2023-05-09T13:24:11.563Z,26.28
2023-05-09T13:26:54.517Z,26.21
2023-05-09T13:29:37.580Z,26.57
2023-05-09T13:32:20.874Z,26.80
2023-05-09T13:35:07.655Z,26.96
2023-05-09T13:37:51.006Z,26.91
2023-05-09T13:40:33.933Z,26.96
2023-05-09T13:43:17.669Z,27.17
2023-05-09T13:46:01.639Z,26.91
2023-05-09T13:48:45.477Z,27.04
2023-05-09T13:51:30.116Z,27.18
2023-05-09T13:54:14.782Z,27.04
2023-05-09T13:56:57.634Z,26.94
2023-05-09T13:59:42.087Z,26.83
2023-05-09T14:02:25.352Z,26.70
2023-05-09T14:05:09.061Z,26.33
2023-05-09T14:07:53.753Z,26.03
2023-05-09T14:10:36.677Z,26.29
2023-05-09T14:13:19.797Z,26.50
2023-05-09T14:16:02.831Z,26.46
2023-05-09T14:18:45.946Z,26.46
2023-05-09T14:21:28.953Z,26.71
2023-05-09T14:24:16.154Z,26.79
2023-05-09T14:26:59.406Z,26.35
2023-05-09T14:29:43.187Z,25.99
2023-05-09T14:32:26.500Z,26.16
2023-05-09T14:35:10.392Z,26.40
2023-05-09T14:37:53.283Z,26.36
2023-05-09T14:40:37.587Z,26.03
2023-05-09T14:43:22.728Z,26.13
2023-05-09T14:46:06.467Z,26.19
2023-05-09T14:48:49.731Z,26.11
2023-05-09T14:51:33.423Z,26.11
2023-05-09T14:54:16.415Z,26.23
2023-05-09T14:57:02.053Z,26.44
2023-05-09T14:59:45.028Z,26.56
2023-05-09T15:02:28.695Z,26.45
2023-05-09T15:05:12.760Z,26.05
2023-05-09T15:07:56.412Z,25.86
2023-05-09T15:10:40.720Z,25.69
2023-05-09T15:13:25.928Z,25.50
2023-05-09T15:16:09.734Z,25.06
2023-05-09T15:18:52.867Z,24.73
2023-05-09T15:21:36.013Z,24.41
2023-05-09T15:24:19.737Z,24.02
2023-05-09T15:27:03.475Z,23.80
2023-05-09T15:29:47.789Z,23.49
2023-05-09T15:32:30.686Z,23.43
2023-05-09T15:35:13.781Z,23.39
2023-05-09T15:37:57.019Z,23.31
2023-05-09T15:40:41.195Z,23.12
2023-05-09T15:43:24.131Z,22.85
2023-05-09T15:46:08.518Z,22.61
2023-05-09T15:48:52.459Z,22.43
2023-05-09T15:51:36.914Z,22.34
2023-05-09T15:54:20.335Z,21.94
2023-05-09T15:57:03.755Z,21.88
2023-05-09T15:59:46.654Z,21.76
2023-05-09T16:02:31.023Z,21.66
2023-05-09T16:05:13.919Z,21.64
2023-05-09T16:07:56.853Z,21.60
2023-05-09T16:10:40.475Z,21.39
2023-05-09T16:13:23.859Z,21.27
2023-05-09T16:16:07.302Z,21.27
2023-05-09T16:18:51.770Z,21.25
2023-05-09T16:21:34.862Z,21.14
2023-05-09T16:24:17.832Z,21.04
2023-05-09T16:27:00.652Z,20.95
2023-05-09T16:29:43.875Z,20.86
2023-05-09T16:32:26.861Z,20.77
2023-05-09T16:35:11.757Z,20.60
2023-05-09T16:37:55.498Z,20.47
2023-05-09T16:40:38.355Z,20.37
2023-05-09T16:43:21.269Z,20.33
2023-05-09T16:46:04.856Z,20.17
2023-05-09T16:48:47.749Z,20.03
2023-05-09T16:51:32.039Z,20.01
2023-05-09T16:54:14.956Z,19.89
2023-05-09T16:56:57.881Z,19.72
2023-05-09T16:59:40.944Z,19.63
2023-05-09T17:02:23.870Z,19.51
2023-05-09T17:05:07.684Z,19.47
2023-05-09T17:07:51.929Z,19.41
2023-05-09T17:10:37.234Z,19.33
2023-05-09T17:13:20.810Z,19.17
2023-05-09T17:16:04.002Z,19.10
2023-05-09T17:18:47.640Z,18.97
2023-05-09T17:21:30.831Z,18.76
2023-05-09T17:24:16.374Z,18.67
2023-05-09T17:26:59.407Z,18.58
2023-05-09T17:29:42.353Z,18.41
2023-05-09T17:32:25.269Z,18.28
2023-05-09T17:35:09.360Z,18.17
2023-05-09T17:37:52.388Z,18.05
2023-05-09T17:40:36.754Z,17.84
2023-05-09T17:43:19.689Z,17.66
2023-05-09T17:46:02.733Z,17.56
2023-05-09T17:48:47.817Z,17.43
2023-05-09T17:51:30.673Z,17.32
2023-05-09T17:54:14.369Z,17.27
2023-05-09T17:57:01.285Z,17.18
2023-05-09T17:59:46.196Z,17.12
2023-05-09T18:02:30.500Z,16.95
2023-05-09T18:05:13.538Z,16.83
2023-05-09T18:07:57.830Z,16.75
2023-05-09T18:10:41.423Z,16.69
2023-05-09T18:13:25.856Z,16.57
2023-05-09T18:16:08.809Z,16.53
2023-05-09T18:18:51.745Z,16.39
2023-05-09T18:21:34.694Z,16.21
2023-05-09T18:24:20.399Z,16.19
2023-05-09T18:27:04.337Z,16.08
2023-05-09T18:29:49.050Z,15.99
2023-05-09T18:32:32.466Z,15.94
2023-05-09T18:35:15.976Z,15.87
2023-05-09T18:37:59.055Z,15.82
2023-05-09T18:40:43.024Z,15.73
2023-05-09T18:43:25.869Z,15.61
2023-05-09T18:46:10.125Z,15.53
2023-05-09T18:48:53.858Z,15.46
2023-05-09T18:51:37.012Z,15.36
2023-05-09T18:54:20.064Z,15.29
2023-05-09T18:57:03.851Z,15.23
2023-05-09T18:59:46.854Z,15.16
2023-05-09T19:02:31.305Z,15.09
2023-05-09T19:05:14.851Z,15.01
2023-05-09T19:07:57.951Z,14.94
2023-05-09T19:10:40.918Z,14.84
2023-05-09T19:13:24.774Z,14.64
2023-05-09T19:16:09.223Z,14.59
2023-05-09T19:18:55.613Z,14.52
2023-05-09T19:21:38.593Z,14.46
2023-05-09T19:24:21.507Z,14.37
2023-05-09T19:27:05.169Z,14.32
2023-05-09T19:29:49.910Z,14.26
2023-05-09T19:32:33.041Z,14.24
2023-05-09T19:35:17.382Z,14.18
2023-05-09T19:38:00.445Z,14.10
2023-05-09T19:40:43.465Z,14.03
2023-05-09T19:43:26.472Z,13.88
2023-05-09T19:46:09.536Z,13.82
2023-05-09T19:48:53.037Z,13.77
2023-05-09T19:51:37.304Z,13.73
2023-05-09T19:54:20.216Z,13.70
2023-05-09T19:57:06.282Z,13.65
2023-05-09T19:59:49.269Z,13.59
2023-05-09T20:02:32.896Z,13.50
2023-05-09T20:05:16.612Z,13.52
2023-05-09T20:08:00.964Z,13.44
2023-05-09T20:10:43.905Z,13.40
2023-05-09T20:13:27.048Z,13.37
2023-05-09T20:16:10.219Z,13.32
2023-05-09T20:18:55.095Z,13.30
2023-05-09T20:21:38.165Z,13.29
2023-05-09T20:24:22.883Z,13.25
2023-05-09T20:27:06.200Z,13.23
2023-05-09T20:29:49.196Z,13.17
2023-05-09T20:32:32.446Z,13.17
2023-05-09T20:35:15.905Z,13.19
2023-05-09T20:37:58.807Z,13.21
2023-05-09T20:40:44.311Z,13.22
2023-05-09T20:43:27.223Z,13.19
2023-05-09T20:46:10.259Z,13.18
2023-05-09T20:48:53.206Z,13.19
2023-05-09T20:51:36.161Z,13.17
2023-05-09T20:54:19.184Z,13.16
2023-05-09T20:57:14.646Z,13.16
2023-05-09T20:59:58.885Z,13.16
2023-05-09T21:02:42.035Z,13.16
2023-05-09T21:05:25.072Z,13.15
2023-05-09T21:08:08.040Z,13.16
2023-05-09T21:10:52.573Z,13.13
2023-05-09T21:13:37.284Z,13.13
2023-05-09T21:16:20.238Z,13.11
2023-05-09T21:19:05.101Z,13.12
2023-05-09T21:21:47.823Z,13.07
2023-05-09T21:24:30.779Z,13.05
2023-05-09T21:27:14.180Z,13.02
2023-05-09T21:29:58.750Z,13.00
2023-05-09T21:32:41.793Z,12.99
2023-05-09T21:35:24.937Z,12.96
2023-05-09T21:38:07.811Z,12.95
2023-05-09T21:40:51.601Z,12.94
2023-05-09T21:43:34.439Z,12.94
2023-05-09T21:46:18.836Z,12.96
2023-05-09T21:49:02.320Z,12.95
2023-05-09T21:51:45.200Z,12.98
2023-05-09T21:54:28.095Z,12.98
2023-05-09T21:57:11.054Z,12.97
2023-05-09T21:59:54.281Z,12.95
2023-05-09T22:02:39.002Z,12.94
2023-05-09T22:05:23.290Z,12.94
2023-05-09T22:08:06.597Z,12.95
2023-05-09T22:10:49.548Z,12.94
2023-05-09T22:13:32.482Z,12.92
2023-05-09T22:16:15.448Z,12.89
2023-05-09T22:18:59.752Z,12.87
2023-05-09T22:21:42.660Z,12.86
2023-05-09T22:24:25.931Z,12.85
2023-05-09T22:27:09.006Z,12.83
2023-05-09T22:29:51.917Z,12.77
2023-05-09T22:32:34.829Z,12.73
2023-05-09T22:35:19.071Z,12.69
2023-05-09T22:38:02.102Z,12.65
2023-05-09T22:40:45.057Z,12.60
2023-05-09T22:43:36.501Z,12.58
2023-05-09T22:46:22.077Z,12.58
2023-05-09T22:49:05.092Z,12.57
2023-05-09T22:51:49.444Z,12.56
2023-05-09T22:54:32.479Z,12.53
2023-05-09T22:57:17.852Z,12.54
2023-05-09T23:00:01.005Z,12.52
2023-05-09T23:02:44.674Z,12.50
2023-05-09T23:05:27.692Z,12.46
2023-05-09T23:08:11.969Z,12.46
2023-05-09T23:10:54.945Z,12.46
2023-05-09T23:13:38.065Z,12.46
2023-05-09T23:16:21.035Z,12.47
2023-05-09T23:19:04.403Z,12.45
2023-05-09T23:21:47.643Z,12.43
2023-05-09T23:24:31.879Z,12.40
2023-05-09T23:27:14.998Z,12.37
2023-05-09T23:29:57.931Z,12.35
2023-05-09T23:32:40.866Z,12.36
2023-05-09T23:35:26.177Z,12.33
2023-05-09T23:38:09.205Z,12.32
2023-05-09T23:40:54.132Z,12.29
2023-05-09T23:43:37.353Z,12.26
2023-05-09T23:46:20.389Z,12.23
2023-05-09T23:49:03.890Z,12.20
2023-05-09T23:51:46.783Z,12.19
2023-05-09T23:54:29.892Z,12.17
2023-05-09T23:57:14.130Z,12.16
2023-05-09T23:59:57.066Z,12.16
